Aviation Digital Data Service (ADDS)

Output produced by TAFs form (1739 UTC 31 January 2015)
found at http://aviationweather.gov/adds/tafs/
 
KELP 311731Z 3118/0118 VRB06KT P6SM FEW010 SCT020 BKN025 
     FM312100 VRB06KT P6SM -SHRA BKN028 OVC060 
     FM010400 24006KT P6SM VCSH SCT040 BKN090 
     FM011000 24006KT P6SM SCT020 BKN040 
     FM011600 31008KT P6SM BKN025